createdAt,value
2018-06-07T00:01:49.568Z,1.30
2018-06-07T00:04:17.837Z,1.23
2018-06-07T00:06:46.102Z,1.40
2018-06-07T00:09:14.391Z,1.43
2018-06-07T00:11:42.673Z,1.40
2018-06-07T00:20:08.245Z,1.30
2018-06-07T01:20:10.521Z,1.23
2018-06-07T01:22:38.804Z,1.20
2018-06-07T01:25:07.136Z,1.47
2018-06-07T01:27:39.437Z,1.30
2018-06-07T01:30:24.549Z,1.60
2018-06-07T01:34:12.436Z,1.30
2018-06-07T01:36:40.781Z,1.37
2018-06-07T01:39:11.897Z,1.50
2018-06-07T01:41:40.236Z,1.43
2018-06-07T01:44:08.544Z,1.00
2018-06-07T01:46:36.810Z,1.10
2018-06-07T01:49:05.089Z,1.80
2018-06-07T01:51:33.381Z,1.33
2018-06-07T01:54:01.674Z,1.20
2018-06-07T01:56:29.927Z,1.23
2018-06-07T01:58:58.177Z,1.30
2018-06-07T02:01:26.449Z,1.70
2018-06-07T02:03:54.692Z,1.40
2018-06-07T02:06:22.965Z,1.37
2018-06-07T02:08:51.253Z,1.27
2018-06-07T02:11:19.507Z,1.40
2018-06-07T03:23:16.419Z,1.20
2018-06-07T03:25:44.745Z,1.23
2018-06-07T03:28:13.061Z,1.60
2018-06-07T03:30:41.342Z,1.30
2018-06-07T03:33:09.664Z,1.40
2018-06-07T03:35:37.988Z,1.40
2018-06-07T03:38:06.269Z,1.60
2018-06-07T03:40:34.557Z,1.40
2018-06-07T03:43:02.868Z,1.50
2018-06-07T03:45:31.158Z,1.70
2018-06-07T03:47:59.485Z,1.40
2018-06-07T03:50:28.317Z,1.40
2018-06-07T03:52:56.634Z,1.80
2018-06-07T03:55:24.890Z,1.30
2018-06-07T03:57:53.148Z,1.50
2018-06-07T04:00:21.445Z,1.70
2018-06-07T04:02:49.718Z,1.57
2018-06-07T04:05:18.019Z,1.30
2018-06-07T04:07:46.289Z,1.40
2018-06-07T04:10:14.594Z,1.40
2018-06-07T04:12:43.104Z,1.70
2018-06-07T04:18:03.880Z,1.37
2018-06-07T04:20:32.200Z,1.50
2018-06-07T04:23:00.492Z,1.40
2018-06-07T05:14:13.289Z,1.67
2018-06-07T05:19:44.317Z,1.23
2018-06-07T05:22:12.608Z,1.23
2018-06-07T06:19:22.768Z,1.30
2018-06-07T06:21:54.484Z,1.40
2018-06-07T07:12:58.340Z,1.27
2018-06-07T07:15:26.684Z,1.10
2018-06-07T07:17:57.992Z,1.20
2018-06-07T07:20:39.081Z,1.43
2018-06-07T07:26:00.101Z,1.00
2018-06-07T07:28:28.413Z,1.50
2018-06-07T07:30:56.705Z,1.40
2018-06-07T07:33:24.972Z,1.10
2018-06-07T07:35:53.321Z,1.33
2018-06-07T07:38:21.674Z,1.30
2018-06-07T07:40:49.981Z,1.37
2018-06-07T07:43:18.272Z,1.20
2018-06-07T07:45:46.561Z,1.30
2018-06-07T07:48:14.840Z,1.30
2018-06-07T07:50:43.108Z,1.33
2018-06-07T07:53:11.389Z,1.33
2018-06-07T07:55:39.629Z,1.53
2018-06-07T07:58:07.899Z,1.00
2018-06-07T08:00:36.173Z,1.10
2018-06-07T08:03:04.440Z,1.50
2018-06-07T08:05:32.678Z,1.27
2018-06-07T08:08:00.961Z,1.10
2018-06-07T08:10:29.221Z,1.53
2018-06-07T08:12:57.501Z,1.30
2018-06-07T08:15:25.827Z,1.30
2018-06-07T08:17:54.053Z,1.20
2018-06-07T08:20:22.341Z,1.17
2018-06-07T08:22:51.893Z,1.10
2018-06-07T09:20:07.837Z,1.20
2018-06-07T09:22:36.120Z,1.40
2018-06-07T09:25:04.428Z,1.20
2018-06-07T09:27:32.733Z,1.20
2018-06-07T09:30:01.082Z,1.10
2018-06-07T09:32:29.403Z,1.20
2018-06-07T09:34:57.766Z,1.20
2018-06-07T09:37:26.081Z,1.20
2018-06-07T09:39:54.397Z,1.13
2018-06-07T09:42:22.693Z,1.10
2018-06-07T09:44:51.057Z,1.20
2018-06-07T09:47:19.365Z,1.07
2018-06-07T09:49:47.664Z,1.20
2018-06-07T09:52:15.951Z,1.37
2018-06-07T09:54:44.229Z,1.13
2018-06-07T09:57:12.518Z,1.10
2018-06-07T09:59:40.805Z,1.27
2018-06-07T10:02:09.079Z,1.27
2018-06-07T10:04:37.364Z,1.50
2018-06-07T10:07:05.666Z,1.30
2018-06-07T10:09:33.956Z,1.23
2018-06-07T10:12:02.253Z,1.30
2018-06-07T10:14:36.169Z,1.20
2018-06-07T10:17:04.471Z,1.33
2018-06-07T10:19:32.770Z,1.57
2018-06-07T10:27:54.205Z,1.10
2018-06-07T10:30:22.509Z,1.13
2018-06-07T10:32:50.813Z,1.10
2018-06-07T10:35:19.101Z,1.10
2018-06-07T10:37:47.428Z,1.10
2018-06-07T10:40:15.722Z,1.10
2018-06-07T10:42:44.021Z,1.30
2018-06-07T10:45:12.314Z,1.20
2018-06-07T10:47:40.616Z,1.43
2018-06-07T10:50:08.982Z,1.07
2018-06-07T10:52:37.278Z,1.10
2018-06-07T10:55:05.618Z,1.03
2018-06-07T10:57:33.912Z,1.20
2018-06-07T11:00:02.189Z,1.10
2018-06-07T11:02:30.488Z,1.10
2018-06-07T11:04:58.769Z,0.90
2018-06-07T11:07:27.038Z,1.30
2018-06-07T11:09:55.354Z,1.30
2018-06-07T11:12:23.650Z,1.10
2018-06-07T11:14:51.945Z,1.10
2018-06-07T11:17:20.209Z,1.40
2018-06-07T12:20:27.337Z,1.20
2018-06-07T13:12:46.249Z,1.60
2018-06-07T14:15:51.281Z,1.93
2018-06-07T14:18:19.582Z,1.90
2018-06-07T14:20:59.736Z,1.90
2018-06-07T14:23:28.022Z,1.90
2018-06-07T14:25:56.337Z,2.10
2018-06-07T14:28:24.636Z,1.83
2018-06-07T14:30:52.938Z,1.90
2018-06-07T14:33:21.252Z,1.93
2018-06-07T14:35:49.554Z,2.40
2018-06-07T14:38:17.841Z,2.07
2018-06-07T14:40:46.194Z,2.00
2018-06-07T14:43:14.489Z,1.73
2018-06-07T14:45:42.789Z,1.90
2018-06-07T14:50:45.649Z,2.40
2018-06-07T14:53:13.917Z,2.30
2018-06-07T14:55:42.205Z,1.80
2018-06-07T14:58:10.490Z,1.90
2018-06-07T15:00:38.751Z,1.83
2018-06-07T15:03:07.049Z,1.90
2018-06-07T15:05:35.309Z,1.90
2018-06-07T15:08:03.560Z,2.20
2018-06-07T15:10:31.798Z,2.00
2018-06-07T15:13:16.830Z,1.90
2018-06-07T16:13:10.734Z,1.80
2018-06-07T16:21:31.080Z,2.40
2018-06-07T17:12:48.749Z,2.20
2018-06-07T17:18:09.568Z,2.30
2018-06-07T17:20:39.125Z,2.30
2018-06-07T18:17:49.197Z,2.60
2018-06-07T19:15:09.967Z,1.93
2018-06-07T19:17:38.281Z,1.73
2018-06-07T19:20:12.073Z,1.60
2018-06-07T19:22:45.937Z,1.77
2018-06-07T19:25:19.666Z,2.00
2018-06-07T19:27:47.992Z,2.07
2018-06-07T19:30:16.296Z,2.47
2018-06-07T19:32:49.934Z,6.33
2018-06-07T19:35:18.630Z,2.10
2018-06-07T19:37:46.944Z,2.13
2018-06-07T19:40:20.694Z,2.10
2018-06-07T19:42:48.965Z,1.90
2018-06-07T19:45:17.277Z,1.87
2018-06-07T19:47:45.548Z,1.70
2018-06-07T19:50:13.818Z,1.83
2018-06-07T19:52:42.169Z,1.60
2018-06-07T19:55:10.632Z,1.90
2018-06-07T19:57:38.901Z,1.57
2018-06-07T20:00:07.832Z,1.77
2018-06-07T20:02:42.463Z,1.83
2018-06-07T20:05:10.717Z,1.90
2018-06-07T20:07:39.010Z,1.67
2018-06-07T20:10:07.557Z,2.13
2018-06-07T21:16:19.665Z,1.70
2018-06-07T21:18:51.670Z,3.80
2018-06-07T21:21:42.273Z,4.43
2018-06-07T21:24:10.573Z,3.17
2018-06-07T21:26:38.878Z,1.90
2018-06-07T21:29:07.178Z,2.07
2018-06-07T21:31:35.485Z,1.87
2018-06-07T21:34:03.790Z,2.13
2018-06-07T21:36:32.094Z,2.00
2018-06-07T21:39:00.446Z,1.93
2018-06-07T21:41:28.821Z,1.90
2018-06-07T21:43:57.165Z,1.83
2018-06-07T21:46:25.679Z,2.07
2018-06-07T21:48:53.943Z,1.80
2018-06-07T21:51:22.236Z,1.80
2018-06-07T21:53:50.558Z,1.70
2018-06-07T21:56:18.826Z,2.40
2018-06-07T21:58:47.104Z,1.87
2018-06-07T22:01:15.385Z,1.90
2018-06-07T22:03:43.657Z,1.70
2018-06-07T22:06:11.917Z,2.03
2018-06-07T22:08:40.323Z,1.83
2018-06-07T22:11:08.604Z,1.80
2018-06-07T22:13:57.521Z,1.80
2018-06-07T22:19:28.957Z,1.50
2018-06-07T22:21:57.277Z,2.20
2018-06-07T22:27:18.177Z,1.60
2018-06-07T22:29:46.478Z,1.90
2018-06-07T22:32:14.784Z,1.70
2018-06-07T22:34:43.085Z,1.50
2018-06-07T22:37:11.397Z,2.10
2018-06-07T22:39:39.710Z,1.80
2018-06-07T22:42:08.062Z,1.80
2018-06-07T22:44:36.363Z,1.63
2018-06-07T22:47:04.659Z,1.73
2018-06-07T22:49:32.956Z,1.87
2018-06-07T22:52:01.263Z,1.90
2018-06-07T22:54:29.544Z,1.87
2018-06-07T22:56:57.822Z,1.80
2018-06-07T22:59:26.127Z,1.97
2018-06-07T23:01:54.395Z,2.00
2018-06-07T23:04:22.668Z,1.77
2018-06-07T23:06:50.956Z,1.90
2018-06-07T23:09:19.248Z,1.70
2018-06-07T23:11:47.504Z,1.97
